Valdez, AK

2:52 PM AKST on February 11, 2016 (GMT -0900)
Valdez | | Change Station
CLOSE
Current Station
Airport
Location: Valdez Airport,
Elevation: 121 ft
Nearby Weather Stations

Elev 121 ft 61.13 °N, 146.25 °W | Updated 16 minutes ago

Overcast
Overcast
36 °F
Feels Like 32 °F
N
5
Wind Variable Wind from West

Today
High -- | Low -- °F
--% Chance of Precip.
Yesterday
High -- | Low -- °F
Precip. -- in
Pressure 29.79 in
Visibility 6.0 miles
Clouds Few 100 ft
Mostly Cloudy 4000 ft
Overcast 6000 ft
Windchill 32 °F
Dew Point 32 °F
Humidity 87%
Rainfall 0.32 in
Snow Depth Not available.
8:39 AM 5:20 PM
Waxing Crescent, 15% visible
METAR PAVD 112336Z 28004KT 6SM FEW001 BKN040 OVC060 02/00 A2979 RMK AO1 2247Z WEA: -RA SNE15 TWR WND 01004KT
Pressure 29.79 in
Visibility 6.0 miles
Clouds Few 100 ft
Mostly Cloudy 4000 ft
Overcast 6000 ft
Windchill 32 °F
Dew Point 32 °F
Humidity 87%
Rainfall 0.32 in
Snow Depth Not available.
8:39 AM 5:20 PM
Waxing Crescent, 15% visible
METAR PAVD 112336Z 28004KT 6SM FEW001 BKN040 OVC060 02/00 A2979 RMK AO1 2247Z WEA: -RA SNE15 TWR WND 01004KT

10-Day Weather Forecast

Almanac

Astronomy

Feb. 11, 2016 Rise Set
Actual Time
Civil Twilight
Nautical Twilight
Astronomical Twilight
Moon
Length of Visible Light
Length of Day
Tomorrow will be .
, % of the Moon is Illuminated

Today's Extremes

State Highs State Lows

Community

WunderPhotos

Upload Photos

1,892,180 photos uploaded!

WunderBlog® & News

Nearby

Air Quality

  Air Quality AQ Index Pollutant
Not available.

Snow Depth

Station Depth Elevation

Earthquake Activity

City Distance Mag. Time & Date
Minimum magnitude displayed is 2.5.

Coastal Water Temperatures

Place Temperature

Stations

Nearby Weather Stations

Station Location Temp. Windchill Dew Point Humidity Wind Precip. Elev Updated Type
                   

Watches & Warnings

There are currently no watches in effect.